Time;durP1;ratioP1;P1;durP2;ratioP2;P2;SDS_P1;SDS_P2;PMS_P1;PMS_P2;Temp;Humidity;BMP_temperature;BMP_pressure;BME280_temperature;BME280_humidity;BME280_pressure;Samples;Min_cycle;Max_cycle;Signal;HPM_P1;HPM_P2
2022/12/04 00:00:39;;;;;;;47.85;21.58;;;0.40;99.90;;;;;;5088462;28;20426;-79
2022/12/04 00:03:05;;;;;;;43.67;21.27;;;0.40;99.90;;;;;;5091240;28;20098;-79
2022/12/04 00:05:30;;;;;;;47.00;21.92;;;0.40;99.90;;;;;;5081468;28;20036;-80
2022/12/04 00:07:56;;;;;;;47.58;20.73;;;0.40;99.90;;;;;;5085059;28;20044;-80
2022/12/04 00:10:22;;;;;;;46.22;20.20;;;0.40;99.90;;;;;;5087184;28;20044;-79
2022/12/04 00:12:47;;;;;;;45.03;20.58;;;0.40;99.90;;;;;;5093753;28;20492;-80
2022/12/04 00:15:14;;;;;;;43.80;20.55;;;0.40;99.90;;;;;;5095538;28;20048;-80
2022/12/04 00:17:39;;;;;;;53.85;22.27;;;0.40;99.90;;;;;;5095467;28;20530;-79
2022/12/04 00:20:06;;;;;;;52.67;20.67;;;0.40;99.90;;;;;;5095645;28;20044;-80
2022/12/04 00:22:32;;;;;;;50.90;21.27;;;0.40;99.90;;;;;;5077916;28;20051;-79
2022/12/04 00:24:58;;;;;;;48.10;21.40;;;0.40;99.90;;;;;;5096365;28;20047;-79
2022/12/04 00:27:23;;;;;;;50.50;22.52;;;0.80;99.90;;;;;;5093271;28;20060;-79
2022/12/04 00:29:49;;;;;;;54.45;23.08;;;0.40;99.90;;;;;;5091711;28;20094;-79
2022/12/04 00:32:14;;;;;;;48.80;21.73;;;0.40;99.90;;;;;;5094879;28;20036;-80
2022/12/04 00:34:40;;;;;;;50.63;23.08;;;0.40;99.90;;;;;;5096089;28;20168;-79
2022/12/04 00:37:06;;;;;;;56.67;23.17;;;0.80;99.90;;;;;;5096131;28;20395;-78
2022/12/04 00:39:31;;;;;;;45.42;21.55;;;0.50;99.90;;;;;;5095837;28;20048;-78
2022/12/04 00:41:57;;;;;;;51.95;20.98;;;0.50;99.90;;;;;;5109481;28;20118;-79
2022/12/04 00:44:22;;;;;;;51.65;22.20;;;0.50;99.90;;;;;;5115158;28;20135;-80
2022/12/04 00:46:48;;;;;;;52.47;20.92;;;0.50;99.90;;;;;;5116116;28;20051;-77
2022/12/04 00:49:13;;;;;;;46.75;21.25;;;0.40;99.90;;;;;;5115461;28;20040;-77
2022/12/04 00:51:39;;;;;;;44.45;20.70;;;0.50;99.90;;;;;;5114395;28;20047;-78
2022/12/04 00:54:05;;;;;;;52.42;22.55;;;0.50;99.90;;;;;;5115890;28;20035;-79
2022/12/04 00:56:30;;;;;;;53.95;22.27;;;0.80;99.90;;;;;;5115828;28;20044;-79
2022/12/04 00:58:58;;;;;;;44.88;22.02;;;0.50;99.90;;;;;;5100712;28;20392;-78
2022/12/04 01:01:25;;;;;;;52.03;23.05;;;1.30;99.90;;;;;;5093996;28;20373;-77
2022/12/04 01:03:52;;;;;;;;;;;0.50;99.90;;;;;;5098303;28;20046;-77
2022/12/04 01:06:24;;;;;;;58.97;23.50;;;0.50;99.90;;;;;;5094713;28;19963;-80
2022/12/04 01:08:51;;;;;;;49.97;22.55;;;0.50;99.90;;;;;;5094674;28;20131;-78
2022/12/04 01:11:18;;;;;;;49.17;22.25;;;0.60;99.90;;;;;;5094685;28;20044;-79
2022/12/04 01:13:44;;;;;;;44.38;19.65;;;0.20;99.90;;;;;;5093533;28;20130;-79
2022/12/04 01:16:19;;;;;;;47.47;21.42;;;0.50;99.90;;;;;;5111024;28;20078;-79
2022/12/04 01:18:45;;;;;;;50.72;22.77;;;0.50;99.90;;;;;;5115471;28;20043;-80
2022/12/04 01:21:11;;;;;;;47.10;21.83;;;0.70;99.90;;;;;;5114903;28;20127;-80
2022/12/04 01:23:36;;;;;;;48.30;22.80;;;0.50;99.90;;;;;;5111832;28;20039;-79
2022/12/04 01:26:02;;;;;;;50.38;23.52;;;0.50;99.90;;;;;;5111232;28;20089;-80
2022/12/04 01:28:28;;;;;;;49.90;22.95;;;0.60;99.90;;;;;;5115458;28;20083;-79
2022/12/04 01:31:14;;;;;;;52.08;23.70;;;0.50;99.90;;;;;;5115694;28;20044;-78
2022/12/04 01:33:41;;;;;;;46.10;21.52;;;0.50;99.90;;;;;;5072979;28;20044;-79
2022/12/04 01:36:10;;;;;;;49.97;21.30;;;0.40;99.90;;;;;;5074170;28;20045;-79
2022/12/04 01:38:36;;;;;;;51.92;24.30;;;0.50;99.90;;;;;;5072772;28;20043;-80
2022/12/04 01:41:02;;;;;;;53.22;22.73;;;0.50;99.90;;;;;;5074042;28;20392;-79
2022/12/04 01:43:31;;;;;;;47.67;23.15;;;0.50;99.90;;;;;;5074035;28;20132;-79
2022/12/04 01:46:00;;;;;;;53.08;23.80;;;0.50;99.90;;;;;;5073723;28;20500;-78
2022/12/04 01:48:42;;;;;;;50.72;22.92;;;0.50;99.90;;;;;;5076670;28;20063;-79
2022/12/04 01:51:43;;;;;;;49.00;22.73;;;0.50;99.90;;;;;;5093990;28;20404;-77
2022/12/04 01:54:41;;;;;;;48.08;23.40;;;0.50;99.90;;;;;;5079660;28;20055;-79
2022/12/04 01:57:13;;;;;;;53.15;24.33;;;0.50;99.90;;;;;;5090034;28;20088;-80
2022/12/04 01:59:50;;;;;;;50.90;23.45;;;0.40;99.90;;;;;;5093961;28;20432;-78
2022/12/04 02:02:21;;;;;;;49.72;22.83;;;0.40;99.90;;;;;;5094294;28;20047;-80
2022/12/04 02:04:48;;;;;;;48.63;23.10;;;0.40;99.90;;;;;;5097901;28;20044;-79
2022/12/04 02:07:13;;;;;;;54.80;24.52;;;0.40;99.90;;;;;;5093517;28;20048;-80
2022/12/04 02:09:40;;;;;;;53.28;23.88;;;0.30;99.90;;;;;;5092771;28;20075;-79
2022/12/04 02:12:24;;;;;;;44.03;21.42;;;0.40;99.90;;;;;;5093795;28;20426;-79
2022/12/04 02:15:06;;;;;;;49.75;22.55;;;0.40;99.90;;;;;;5091543;28;20047;-79
2022/12/04 02:17:50;;;;;;;48.58;23.00;;;0.40;99.90;;;;;;5093665;28;20048;-78
2022/12/04 02:20:40;;;;;;;49.22;23.67;;;0.40;99.90;;;;;;5092238;28;20388;-78
2022/12/04 02:23:23;;;;;;;59.50;24.77;;;0.40;99.90;;;;;;5093550;28;20044;-77
2022/12/04 02:26:10;;;;;;;46.90;21.80;;;0.40;99.90;;;;;;5088618;28;20056;-79
2022/12/04 02:29:08;;;;;;;46.65;23.13;;;0.40;99.90;;;;;;5093862;28;20059;-79
2022/12/04 02:31:41;;;;;;;50.10;23.17;;;0.40;99.90;;;;;;5093250;28;20048;-79
2022/12/04 02:34:27;;;;;;;57.75;24.63;;;0.30;99.90;;;;;;5093521;28;20044;-79
2022/12/04 02:37:39;;;;;;;49.78;23.48;;;0.30;99.90;;;;;;5093586;28;20047;-79
2022/12/04 02:40:22;;;;;;;48.65;22.48;;;0.30;99.90;;;;;;5084706;28;20055;-79
2022/12/04 02:42:51;;;;;;;55.45;24.42;;;0.40;99.90;;;;;;5118149;27;20066;-79
2022/12/04 02:45:25;;;;;;;53.80;24.00;;;0.30;99.90;;;;;;5118039;28;20044;-77
2022/12/04 02:47:52;;;;;;;51.88;23.80;;;0.30;99.90;;;;;;5117797;28;20528;-81
2022/12/04 02:50:21;;;;;;;;;;;0.30;99.90;;;;;;5118274;28;20122;-78
2022/12/04 02:53:03;;;;;;;51.42;23.27;;;0.40;99.90;;;;;;5103149;27;19920;-79
2022/12/04 02:55:35;;;;;;;54.63;24.27;;;0.40;99.90;;;;;;5097122;28;20426;-78
2022/12/04 02:58:10;;;;;;;50.38;23.80;;;2.00;99.90;;;;;;5096368;28;20144;-78
2022/12/04 03:00:38;;;;;;;50.20;22.67;;;0.40;99.90;;;;;;5097250;28;20039;-79
2022/12/04 03:03:17;;;;;;;49.28;23.02;;;0.40;99.90;;;;;;5097289;28;20048;-79
2022/12/04 03:06:04;;;;;;;53.70;24.17;;;0.40;99.90;;;;;;5098992;28;20055;-78
2022/12/04 03:08:39;;;;;;;51.38;23.50;;;0.30;99.90;;;;;;5097633;28;20039;-78
2022/12/04 03:11:05;;;;;;;59.78;24.80;;;0.30;99.90;;;;;;5097112;28;20048;-78
2022/12/04 03:13:49;;;;;;;55.88;24.83;;;0.40;99.90;;;;;;5097385;28;20502;-78
2022/12/04 03:16:37;;;;;;;53.30;24.17;;;0.30;99.90;;;;;;5097136;28;20048;-78
2022/12/04 03:19:18;;;;;;;53.22;25.33;;;0.40;99.90;;;;;;5097164;28;20050;-78
2022/12/04 03:21:53;;;;;;;47.92;23.33;;;0.40;99.90;;;;;;5095912;28;20071;-79
2022/12/04 03:24:25;;;;;;;52.20;25.58;;;0.40;99.90;;;;;;5088615;28;20084;-79
2022/12/04 03:27:14;;;;;;;51.63;24.45;;;0.30;99.90;;;;;;5095528;28;20055;-79
2022/12/04 03:30:03;;;;;;;56.45;25.52;;;0.40;99.90;;;;;;5095448;28;20044;-77
2022/12/04 03:32:52;;;;;;;54.90;23.05;;;0.30;99.90;;;;;;5115687;28;20084;-78
2022/12/04 03:35:20;;;;;;;53.42;23.83;;;0.40;99.90;;;;;;5117348;28;20074;-78
2022/12/04 03:38:17;;;;;;;55.85;24.80;;;0.40;99.90;;;;;;5117247;28;20090;-77
2022/12/04 03:41:01;;;;;;;56.45;24.50;;;0.40;99.90;;;;;;5085158;28;20070;-78
2022/12/04 03:43:36;;;;;;;56.28;25.08;;;0.40;99.90;;;;;;5075247;28;20127;-79
2022/12/04 03:46:32;;;;;;;57.58;24.38;;;0.30;99.90;;;;;;5076460;28;20036;-78
2022/12/04 03:49:39;;;;;;;63.65;25.02;;;0.30;99.90;;;;;;5092818;28;20403;-81
2022/12/04 03:52:21;;;;;;;49.00;22.38;;;0.30;99.90;;;;;;5116882;28;20048;-80
2022/12/04 03:54:53;;;;;;;53.63;24.38;;;0.40;99.90;;;;;;5116628;28;20150;-80
2022/12/04 03:57:27;;;;;;;55.95;23.77;;;0.40;99.90;;;;;;5116836;28;20081;-80
2022/12/04 04:00:05;;;;;;;53.03;24.60;;;0.40;99.90;;;;;;5116489;27;20352;-78
2022/12/04 04:02:36;;;;;;;54.50;24.63;;;0.40;99.90;;;;;;5116582;28;20040;-79
2022/12/04 04:05:06;;;;;;;51.92;23.77;;;0.40;99.90;;;;;;5116965;28;20039;-79
2022/12/04 04:07:36;;;;;;;60.60;25.20;;;0.40;99.90;;;;;;5119168;28;20074;-79
2022/12/04 04:10:12;;;;;;;51.70;24.05;;;0.40;99.90;;;;;;5116788;28;20039;-79
2022/12/04 04:24:12;;;;;;;56.95;24.30;;;0.40;99.90;;;;;;5117497;28;20055;-80
2022/12/04 04:26:40;;;;;;;53.55;23.88;;;0.30;99.90;;;;;;5089333;28;20089;-79
2022/12/04 04:29:08;;;;;;;55.50;24.55;;;0.30;99.90;;;;;;5096185;28;20055;-79
2022/12/04 04:31:59;;;;;;;56.92;25.27;;;0.20;99.90;;;;;;5094396;28;20405;-79
2022/12/04 04:34:45;;;;;;;52.50;22.40;;;0.20;99.90;;;;;;5095650;28;20100;-79
2022/12/04 04:37:38;;;;;;;44.53;20.00;;;0.20;99.90;;;;;;5095453;28;20177;-78
2022/12/04 04:40:10;;;;;;;54.20;23.98;;;0.20;99.90;;;;;;5110704;28;20043;-79
2022/12/04 04:42:58;;;;;;;52.03;24.23;;;0.20;99.90;;;;;;5115918;28;20043;-79
2022/12/04 04:45:44;;;;;;;51.13;23.25;;;0.20;99.90;;;;;;5096324;28;20094;-77
2022/12/04 04:48:26;;;;;;;58.60;26.25;;;0.20;99.90;;;;;;5094940;28;20059;-79
2022/12/04 04:50:52;;;;;;;54.88;23.38;;;0.10;99.90;;;;;;5094264;28;20054;-78
2022/12/04 04:53:23;;;;;;;52.85;25.63;;;0.20;99.90;;;;;;5094936;28;20129;-78
2022/12/04 04:55:49;;;;;;;53.90;23.08;;;0.20;99.90;;;;;;5099880;28;20054;-79
2022/12/04 04:58:17;;;;;;;54.07;23.03;;;0.20;99.90;;;;;;5113987;28;20126;-80
2022/12/04 05:00:56;;;;;;;51.63;23.30;;;0.10;99.90;;;;;;5114986;28;20278;-79
2022/12/04 05:03:22;;;;;;;55.35;22.88;;;0.20;99.90;;;;;;5114959;28;20524;-78
2022/12/04 05:05:47;;;;;;;59.20;25.38;;;0.20;99.90;;;;;;5115535;28;20043;-78
2022/12/04 05:08:13;;;;;;;56.53;25.23;;;0.20;99.90;;;;;;5117561;28;20097;-79
2022/12/04 05:10:39;;;;;;;50.80;24.27;;;0.20;99.90;;;;;;5115673;28;20476;-79
2022/12/04 05:13:04;;;;;;;48.28;20.55;;;0.20;99.90;;;;;;5114177;28;20082;-78
2022/12/04 05:15:30;;;;;;;54.50;22.65;;;0.20;99.90;;;;;;5097811;28;20457;-79
2022/12/04 05:17:56;;;;;;;55.50;22.75;;;0.20;99.90;;;;;;5088644;28;20101;-77
2022/12/04 05:20:22;;;;;;;55.08;23.80;;;0.20;99.90;;;;;;5088442;28;20395;-77
2022/12/04 05:22:47;;;;;;;60.55;25.25;;;0.20;99.90;;;;;;5094408;28;20044;-79
2022/12/04 05:25:13;;;;;;;51.10;23.50;;;0.20;99.90;;;;;;5092373;28;20043;-79
2022/12/04 05:27:39;;;;;;;53.67;25.05;;;0.20;99.90;;;;;;5094516;28;20430;-78
2022/12/04 05:30:05;;;;;;;53.53;25.13;;;0.20;99.90;;;;;;5101788;28;20479;-80
2022/12/04 05:32:31;;;;;;;63.35;24.30;;;0.20;99.90;;;;;;5101072;28;20093;-79
2022/12/04 05:34:57;;;;;;;49.70;22.90;;;0.10;99.90;;;;;;5094606;28;20151;-79
2022/12/04 05:37:23;;;;;;;52.58;22.88;;;0.10;99.90;;;;;;5094311;28;20388;-78
2022/12/04 05:39:48;;;;;;;54.15;23.80;;;0.20;99.90;;;;;;5094401;28;20046;-78
2022/12/04 05:42:14;;;;;;;51.78;22.42;;;0.20;99.90;;;;;;5093648;28;20119;-78
2022/12/04 05:44:40;;;;;;;54.40;23.40;;;0.20;99.90;;;;;;5081100;28;20055;-79
2022/12/04 05:47:06;;;;;;;52.45;23.45;;;0.20;99.90;;;;;;5082511;28;20441;-78
2022/12/04 05:49:32;;;;;;;51.83;23.58;;;0.20;99.90;;;;;;5094209;28;20044;-78
2022/12/04 05:51:58;;;;;;;54.83;23.75;;;0.20;99.90;;;;;;5093809;28;20054;-78
2022/12/04 05:54:24;;;;;;;53.97;23.93;;;0.20;99.90;;;;;;5094069;28;20052;-79
2022/12/04 05:56:50;;;;;;;52.95;22.48;;;0.20;99.90;;;;;;5094076;28;20055;-77
2022/12/04 05:59:16;;;;;;;48.30;21.63;;;0.20;99.90;;;;;;5093935;28;20198;-77
2022/12/04 06:01:43;;;;;;;43.05;21.60;;;0.60;99.90;;;;;;5094140;28;20286;-77
2022/12/04 06:04:09;;;;;;;53.60;22.53;;;0.20;99.90;;;;;;5094548;28;20047;-80
2022/12/04 06:06:35;;;;;;;57.47;24.33;;;0.20;99.90;;;;;;5093828;28;20040;-77
2022/12/04 06:09:01;;;;;;;48.28;22.58;;;0.20;99.90;;;;;;5099594;28;20503;-80
2022/12/04 06:11:37;;;;;;;38.63;18.95;;;0.20;99.90;;;;;;5094219;28;20036;-79
2022/12/04 06:14:05;;;;;;;48.67;21.90;;;0.20;99.90;;;;;;5093529;28;20051;-75
2022/12/04 06:16:34;;;;;;;50.67;22.30;;;0.20;99.90;;;;;;5087200;28;20045;-76
2022/12/04 06:19:07;;;;;;;48.30;22.60;;;0.20;99.90;;;;;;5093390;28;20067;-76
2022/12/04 06:21:35;;;;;;;49.72;22.50;;;0.90;99.90;;;;;;5090400;28;20058;-77
2022/12/04 06:24:01;;;;;;;52.97;22.48;;;0.30;99.90;;;;;;5092244;28;20036;-77
2022/12/04 06:26:27;;;;;;;47.75;22.83;;;-0.50;99.90;;;;;;5093304;28;20048;-76
2022/12/04 06:28:55;;;;;;;47.10;21.58;;;0.30;99.90;;;;;;5092844;28;20087;-74
2022/12/04 06:31:22;;;;;;;48.55;22.73;;;0.30;99.90;;;;;;5092999;28;20028;-74
2022/12/04 06:33:48;;;;;;;51.72;21.67;;;0.20;99.90;;;;;;5090386;28;20052;-74
2022/12/04 06:36:17;;;;;;;47.47;21.70;;;0.20;99.90;;;;;;5092994;28;20503;-75
2022/12/04 06:38:43;;;;;;;50.25;22.52;;;0.20;99.90;;;;;;5093665;28;20044;-74
2022/12/04 06:41:11;;;;;;;53.45;23.17;;;0.20;99.90;;;;;;5093269;28;20484;-75
2022/12/04 06:43:37;;;;;;;47.97;21.50;;;0.20;99.90;;;;;;5079659;28;20109;-73
2022/12/04 06:46:06;;;;;;;46.55;22.33;;;0.10;99.90;;;;;;5086122;28;20422;-73
2022/12/04 06:48:32;;;;;;;51.45;23.23;;;0.10;99.90;;;;;;5091152;28;20048;-73
2022/12/04 06:51:04;;;;;;;49.47;22.27;;;0.10;99.90;;;;;;5078005;28;20049;-77
2022/12/04 06:53:31;;;;;;;46.60;22.23;;;0.10;99.90;;;;;;5080693;28;20046;-74
2022/12/04 06:56:03;;;;;;;53.03;22.30;;;0.10;99.90;;;;;;5091689;28;20392;-77
2022/12/04 06:58:29;;;;;;;46.35;21.25;;;0.10;99.90;;;;;;5091503;28;20607;-77
2022/12/04 07:00:55;;;;;;;48.88;21.05;;;0.10;99.90;;;;;;5087101;28;20119;-78
2022/12/04 07:03:22;;;;;;;48.58;21.52;;;0.10;99.90;;;;;;5088588;28;20045;-79
2022/12/04 07:05:48;;;;;;;;;;;0.00;99.90;;;;;;5087378;28;20055;-76
2022/12/04 07:08:14;;;;;;;54.10;22.33;;;0.00;99.90;;;;;;5091725;28;20133;-77
2022/12/04 07:10:41;;;;;;;46.40;21.20;;;0.00;99.90;;;;;;5093314;28;20498;-77
2022/12/04 07:13:07;;;;;;;50.70;22.17;;;0.10;99.90;;;;;;5079668;28;20048;-78
2022/12/04 07:15:34;;;;;;;48.08;21.48;;;0.10;99.90;;;;;;5082924;28;20361;-77
2022/12/04 07:17:59;;;;;;;;;;;0.10;99.90;;;;;;5094701;28;20040;-77
2022/12/04 07:20:25;;;;;;;56.53;23.35;;;0.10;99.90;;;;;;5080340;28;19926;-76
2022/12/04 07:22:51;;;;;;;50.53;21.48;;;0.90;99.90;;;;;;5090866;28;20082;-78
2022/12/04 07:25:17;;;;;;;47.33;21.42;;;0.10;99.90;;;;;;5080631;28;20043;-80
2022/12/04 07:27:42;;;;;;;36.50;17.27;;;0.10;99.90;;;;;;5076161;28;20397;-80
2022/12/04 07:30:09;;;;;;;49.20;20.13;;;0.10;99.90;;;;;;5093150;28;20048;-78
2022/12/04 07:32:35;;;;;;;46.13;21.85;;;0.10;99.90;;;;;;5095559;28;20040;-80
2022/12/04 07:35:02;;;;;;;52.57;22.87;;;0.10;99.90;;;;;;5108208;28;20063;-80
2022/12/04 07:37:27;;;;;;;53.38;22.73;;;0.10;99.90;;;;;;5095110;28;20294;-83
2022/12/04 07:39:53;;;;;;;53.08;23.08;;;0.00;99.90;;;;;;5088697;28;20044;-75
2022/12/04 07:42:19;;;;;;;47.72;21.30;;;0.10;99.90;;;;;;5093403;28;20047;-78
2022/12/04 07:44:45;;;;;;;48.63;22.17;;;0.10;99.90;;;;;;5094433;28;20047;-74
2022/12/04 07:47:11;;;;;;;50.67;20.67;;;0.10;99.90;;;;;;5104616;28;20036;-77
2022/12/04 07:49:37;;;;;;;58.80;23.27;;;0.10;99.90;;;;;;5094816;28;20044;-78
2022/12/04 07:52:04;;;;;;;54.35;23.08;;;0.10;99.90;;;;;;5093698;28;20044;-74
2022/12/04 07:54:29;;;;;;;52.78;22.42;;;0.20;99.90;;;;;;5091457;28;20051;-76
2022/12/04 07:56:55;;;;;;;55.80;23.17;;;0.20;99.90;;;;;;5095704;28;20048;-84
2022/12/04 07:59:20;;;;;;;57.75;23.75;;;0.80;99.90;;;;;;5094454;28;20078;-79
2022/12/04 08:01:46;;;;;;;52.78;23.42;;;0.20;99.90;;;;;;5096234;28;20064;-79
2022/12/04 08:04:11;;;;;;;54.60;22.23;;;0.20;99.90;;;;;;5086488;28;20044;-76
2022/12/04 08:06:37;;;;;;;51.28;23.10;;;0.20;99.90;;;;;;5096833;28;20461;-78
2022/12/04 08:09:04;;;;;;;52.25;21.48;;;0.20;99.90;;;;;;5090059;28;20040;-78
2022/12/04 08:11:30;;;;;;;;;;;0.20;99.90;;;;;;5098743;28;20077;-81
2022/12/04 08:13:58;;;;;;;52.67;23.67;;;0.30;99.90;;;;;;5085824;28;19920;-74
2022/12/04 08:16:24;;;;;;;55.80;24.05;;;0.30;99.90;;;;;;5093425;28;20044;-75
2022/12/04 08:18:51;;;;;;;55.08;23.85;;;0.30;99.90;;;;;;5087305;28;20040;-77
2022/12/04 08:21:19;;;;;;;54.42;25.60;;;0.30;99.90;;;;;;5089150;28;20479;-77
2022/12/04 08:23:46;;;;;;;55.85;23.42;;;0.30;99.90;;;;;;5084685;28;20170;-76
2022/12/04 08:26:12;;;;;;;51.63;23.35;;;0.40;99.90;;;;;;5085833;28;20067;-82
2022/12/04 08:28:39;;;;;;;55.58;24.60;;;0.40;99.90;;;;;;5091208;28;20044;-75
2022/12/04 08:31:15;;;;;;;;;;;0.40;99.90;;;;;;5096175;28;20080;-74
2022/12/04 08:33:42;;;;;;;58.55;23.98;;;0.40;99.90;;;;;;5095068;28;19920;-76
2022/12/04 08:36:10;;;;;;;51.40;24.88;;;0.40;99.90;;;;;;5110317;28;20540;-77
2022/12/04 08:38:36;;;;;;;54.90;23.95;;;0.40;99.90;;;;;;5095664;28;20489;-79
2022/12/04 08:41:05;;;;;;;65.28;26.83;;;0.50;99.90;;;;;;5096625;28;20043;-75
2022/12/04 08:43:31;;;;;;;57.90;24.42;;;0.50;99.90;;;;;;5115890;28;20035;-75
2022/12/04 08:45:59;;;;;;;55.40;23.67;;;0.50;99.90;;;;;;5115922;28;20044;-78
2022/12/04 08:48:26;;;;;;;52.38;23.20;;;0.50;99.90;;;;;;5099498;27;20040;-80
2022/12/04 08:50:51;;;;;;;52.55;24.27;;;0.50;99.90;;;;;;5095089;28;20484;-75
2022/12/04 08:53:18;;;;;;;55.90;24.95;;;0.50;99.90;;;;;;5095993;28;20077;-86
2022/12/04 08:55:43;;;;;;;54.97;23.75;;;0.50;99.90;;;;;;5093944;28;20625;-79
2022/12/04 08:58:09;;;;;;;55.58;23.30;;;1.20;99.90;;;;;;5096976;28;20047;-78
2022/12/04 09:00:35;;;;;;;55.95;24.17;;;1.70;99.90;;;;;;5103153;28;20459;-77
2022/12/04 09:03:01;;;;;;;46.33;19.73;;;0.60;99.90;;;;;;5091063;28;20046;-81
2022/12/04 09:05:27;;;;;;;55.65;24.50;;;0.60;99.90;;;;;;5078463;28;20395;-76
2022/12/04 09:07:53;;;;;;;54.95;23.95;;;0.60;99.90;;;;;;5094169;28;20044;-77
2022/12/04 09:10:19;;;;;;;56.53;24.20;;;0.60;99.90;;;;;;5094534;28;20448;-77
2022/12/04 09:12:44;;;;;;;51.80;23.67;;;0.70;99.90;;;;;;5089391;28;20082;-76
2022/12/04 09:15:10;;;;;;;55.67;24.95;;;0.70;99.90;;;;;;5089995;28;20690;-77
2022/12/04 09:17:36;;;;;;;56.30;25.42;;;0.70;99.90;;;;;;5089093;28;20055;-78
2022/12/04 09:20:03;;;;;;;56.40;23.25;;;0.70;99.90;;;;;;5092299;28;20043;-77
2022/12/04 09:22:28;;;;;;;;;;;0.80;99.90;;;;;;5092838;28;20051;-77
2022/12/04 09:24:54;;;;;;;59.70;25.45;;;0.80;99.90;;;;;;5092700;28;19920;-81
2022/12/04 09:27:20;;;;;;;57.20;23.42;;;0.90;99.90;;;;;;5092949;28;20066;-77
2022/12/04 09:29:46;;;;;;;51.58;22.65;;;0.90;99.90;;;;;;5088788;28;20047;-78
2022/12/04 09:32:11;;;;;;;50.17;21.67;;;0.90;99.90;;;;;;5092712;28;20039;-77
2022/12/04 09:34:37;;;;;;;57.70;25.63;;;0.90;99.90;;;;;;5094448;28;20129;-77
2022/12/04 09:37:02;;;;;;;53.00;24.08;;;0.90;99.90;;;;;;5094229;28;20135;-77
2022/12/04 09:39:28;;;;;;;49.97;23.13;;;0.90;99.90;;;;;;5094127;28;20039;-80
2022/12/04 09:42:19;;;;;;;56.72;24.38;;;1.00;99.90;;;;;;5094195;28;20539;-77
2022/12/04 09:44:53;;;;;;;50.67;22.85;;;1.00;99.90;;;;;;5083878;28;20059;-87
2022/12/04 09:47:31;;;;;;;54.38;24.52;;;1.00;99.90;;;;;;5089841;28;20562;-78
2022/12/04 09:50:03;;;;;;;56.17;24.95;;;1.00;99.90;;;;;;5088037;28;20040;-75
2022/12/04 09:52:47;;;;;;;54.95;23.98;;;1.00;99.90;;;;;;5088302;28;20044;-76
2022/12/04 09:55:25;;;;;;;50.67;23.08;;;1.10;99.90;;;;;;5088090;28;20048;-78
2022/12/04 09:57:54;;;;;;;57.40;25.05;;;1.10;99.90;;;;;;5087662;28;20044;-77
2022/12/04 10:00:20;;;;;;;54.08;24.00;;;1.10;99.90;;;;;;5089146;28;20484;-77
2022/12/04 10:02:54;;;;;;;53.63;24.23;;;1.20;99.90;;;;;;5101996;28;20054;-80
2022/12/04 10:05:47;;;;;;;53.08;23.42;;;1.20;99.90;;;;;;5110628;28;20048;-76
2022/12/04 10:08:21;;;;;;;48.05;22.88;;;1.20;99.90;;;;;;5100597;28;20135;-79
2022/12/04 10:10:52;;;;;;;54.42;24.75;;;1.20;99.90;;;;;;5089778;28;20464;-77
2022/12/04 10:13:24;;;;;;;44.22;20.90;;;1.20;99.90;;;;;;5081535;28;20136;-78
2022/12/04 10:16:06;;;;;;;51.47;25.00;;;1.20;99.90;;;;;;5064324;28;20080;-79
2022/12/04 10:18:41;;;;;;;55.42;25.60;;;1.30;99.90;;;;;;5072843;28;20052;-76
2022/12/04 10:21:41;;;;;;;50.83;23.77;;;1.30;99.90;;;;;;5086488;28;20047;-74
2022/12/04 10:24:09;;;;;;;54.70;23.17;;;1.30;99.90;;;;;;5086196;28;20081;-76
2022/12/04 10:26:42;;;;;;;45.47;21.95;;;1.30;99.90;;;;;;5080033;28;20086;-77
2022/12/04 10:29:16;;;;;;;54.60;22.77;;;1.40;99.90;;;;;;5089611;28;20040;-80
2022/12/04 10:31:44;;;;;;;46.00;21.38;;;1.40;99.90;;;;;;5086381;28;20080;-76
2022/12/04 10:34:23;;;;;;;51.05;23.70;;;1.40;99.90;;;;;;5089383;28;20044;-75
2022/12/04 10:36:54;;;;;;;44.08;21.77;;;1.40;99.90;;;;;;5082867;28;20409;-76
2022/12/04 10:39:27;;;;;;;44.63;21.80;;;1.40;99.90;;;;;;5081226;28;20427;-79
2022/12/04 10:42:25;;;;;;;47.85;23.35;;;1.40;99.90;;;;;;5084391;28;20051;-80
2022/12/04 10:44:52;;;;;;;49.00;20.98;;;1.40;99.90;;;;;;5089268;28;20060;-77
2022/12/04 10:47:17;;;;;;;47.22;21.50;;;1.50;99.90;;;;;;5085308;28;20123;-79
2022/12/04 10:49:43;;;;;;;46.78;21.55;;;1.50;99.90;;;;;;5088202;28;20130;-76
2022/12/04 10:52:12;;;;;;;45.47;20.77;;;1.50;99.90;;;;;;5090415;28;20079;-77
2022/12/04 10:55:00;;;;;;;44.30;21.10;;;1.50;99.90;;;;;;5088836;28;20511;-77
2022/12/04 10:57:44;;;;;;;41.70;19.52;;;1.60;99.90;;;;;;5088982;28;20033;-76
2022/12/04 11:00:29;;;;;;;47.13;20.85;;;1.60;99.90;;;;;;5087908;28;20036;-73
2022/12/04 11:02:58;;;;;;;43.72;20.23;;;1.60;99.90;;;;;;5092541;28;20047;-74
2022/12/04 11:05:28;;;;;;;39.88;20.20;;;1.60;99.90;;;;;;5091138;28;20522;-75
2022/12/04 11:07:55;;;;;;;46.90;19.05;;;1.60;99.90;;;;;;5094732;28;20032;-78
2022/12/04 11:10:30;;;;;;;38.30;16.83;;;1.60;99.90;;;;;;5088937;28;20055;-72
2022/12/04 11:13:14;;;;;;;41.45;18.42;;;1.70;99.90;;;;;;5092419;28;20071;-76
2022/12/04 11:15:50;;;;;;;39.28;19.38;;;1.70;99.90;;;;;;5097851;28;20048;-77
2022/12/04 11:18:22;;;;;;;40.58;19.10;;;1.80;99.90;;;;;;5090254;28;20048;-77
2022/12/04 11:20:57;;;;;;;35.38;17.63;;;1.80;99.90;;;;;;5093316;28;20040;-81
2022/12/04 11:23:24;;;;;;;37.67;18.30;;;1.90;99.90;;;;;;5092268;28;20040;-74
2022/12/04 11:25:52;;;;;;;37.10;17.80;;;1.90;99.90;;;;;;5092209;28;20048;-77
2022/12/04 11:28:22;;;;;;;37.97;17.23;;;1.90;99.90;;;;;;5095926;28;20047;-77
2022/12/04 11:30:53;;;;;;;32.83;16.98;;;2.00;99.90;;;;;;5088463;28;20067;-80
2022/12/04 11:33:28;;;;;;;32.53;16.58;;;2.60;99.90;;;;;;5094561;28;20040;-77
2022/12/04 11:35:58;;;;;;;26.88;14.60;;;2.00;99.90;;;;;;5082600;28;20048;-82
2022/12/04 11:38:27;;;;;;;30.38;16.10;;;2.10;99.90;;;;;;5083508;28;20051;-74
2022/12/04 11:40:59;;;;;;;33.22;15.02;;;2.10;99.90;;;;;;5083043;28;20480;-82
2022/12/04 11:43:29;;;;;;;31.35;15.27;;;2.10;99.90;;;;;;5096727;28;20040;-76
2022/12/04 11:45:59;;;;;;;33.95;15.32;;;2.20;99.90;;;;;;5090472;28;20052;-76
2022/12/04 11:48:29;;;;;;;30.65;15.20;;;2.20;99.90;;;;;;5097927;28;20036;-75
2022/12/04 11:51:29;;;;;;;32.33;15.07;;;2.20;99.90;;;;;;5099861;28;20073;-76
2022/12/04 11:54:10;;;;;;;33.42;16.50;;;2.20;99.90;;;;;;5092776;28;20048;-77
2022/12/04 11:56:41;;;;;;;34.05;15.75;;;2.20;99.90;;;;;;5093234;28;20052;-78
2022/12/04 11:59:16;;;;;;;30.58;14.48;;;2.20;99.90;;;;;;5091498;28;20047;-80
2022/12/04 12:02:12;;;;;;;28.98;15.32;;;2.20;99.90;;;;;;5096726;27;20480;-79
2022/12/04 12:05:10;;;;;;;30.88;14.95;;;2.20;99.90;;;;;;5089807;28;20043;-79
2022/12/04 12:08:15;;;;;;;29.25;15.25;;;2.20;99.90;;;;;;5084969;28;20123;-82
2022/12/04 12:11:03;;;;;;;30.83;15.73;;;2.20;99.90;;;;;;5089539;28;20051;-79
2022/12/04 12:13:38;;;;;;;30.60;15.18;;;2.20;99.90;;;;;;5081495;28;20131;-79
2022/12/04 12:16:21;;;;;;;28.15;14.45;;;2.20;99.90;;;;;;5088774;28;20143;-77
2022/12/04 12:19:07;;;;;;;33.30;15.95;;;2.20;99.90;;;;;;5087261;28;20040;-75
2022/12/04 12:21:46;;;;;;;31.40;15.13;;;2.20;99.90;;;;;;5091387;28;20051;-77
2022/12/04 12:24:17;;;;;;;27.88;15.23;;;2.20;99.90;;;;;;5100250;28;20087;-77
2022/12/04 12:27:04;;;;;;;28.15;14.73;;;2.20;99.90;;;;;;5083909;28;20056;-75
2022/12/04 12:29:42;;;;;;;32.85;15.57;;;2.20;99.90;;;;;;5086244;28;20044;-79
2022/12/04 12:32:40;;;;;;;;;;;2.20;99.90;;;;;;5083632;28;20127;-80
2022/12/04 12:35:17;;;;;;;28.20;15.25;;;2.30;99.90;;;;;;5054553;28;20283;-71
2022/12/04 12:37:48;;;;;;;34.60;16.00;;;2.30;99.90;;;;;;5093033;28;20048;-72
2022/12/04 12:40:41;;;;;;;33.58;16.23;;;2.60;99.90;;;;;;5085382;28;20302;-71
2022/12/04 12:43:36;;;;;;;28.95;14.80;;;2.20;99.90;;;;;;5087770;28;20044;-74
2022/12/04 12:46:22;;;;;;;36.65;16.77;;;2.10;99.90;;;;;;5061940;28;20049;-76
2022/12/04 12:48:56;;;;;;;33.45;16.35;;;2.20;99.90;;;;;;5091619;28;20119;-72
2022/12/04 12:51:40;;;;;;;32.08;16.27;;;2.20;99.90;;;;;;5092392;28;20040;-73
2022/12/04 12:54:37;;;;;;;32.13;16.75;;;2.20;99.90;;;;;;5090504;28;20044;-75
2022/12/04 12:57:20;;;;;;;32.05;15.80;;;2.20;99.90;;;;;;5092670;28;20040;-76
2022/12/04 12:59:54;;;;;;;31.23;15.40;;;2.10;99.90;;;;;;5096001;28;20044;-80
2022/12/04 13:02:39;;;;;;;31.23;15.93;;;2.10;99.90;;;;;;5093548;28;20054;-79
2022/12/04 13:05:09;;;;;;;36.85;16.42;;;2.10;99.90;;;;;;5073875;28;20059;-77
2022/12/04 13:07:59;;;;;;;35.10;16.27;;;2.10;99.90;;;;;;5081954;28;20056;-82
2022/12/04 13:10:40;;;;;;;33.35;15.88;;;2.20;99.90;;;;;;5087852;28;20078;-79
2022/12/04 13:13:18;;;;;;;31.92;15.88;;;2.20;99.90;;;;;;5085659;28;20040;-81
2022/12/04 13:15:52;;;;;;;33.47;16.75;;;2.20;99.90;;;;;;5078935;28;20500;-74